Time;durP1;ratioP1;P1;durP2;ratioP2;P2;SDS_P1;SDS_P2;PMS_P1;PMS_P2;Temp;Humidity;BMP_temperature;BMP_pressure;BME280_temperature;BME280_humidity;BME280_pressure;Samples;Min_cycle;Max_cycle;Signal;HPM_P1;HPM_P2
2021/11/16 00:01:05;;;;;;;57.67;30.17;;;6.50;99.90;;;;;;5100130;27;20046;-67
2021/11/16 00:03:31;;;;;;;58.75;28.67;;;6.50;99.90;;;;;;5113891;28;20104;-67
2021/11/16 00:05:57;;;;;;;54.85;29.90;;;6.50;99.90;;;;;;5123258;27;20083;-67
2021/11/16 00:08:22;;;;;;;58.75;31.35;;;6.50;99.90;;;;;;5126427;27;20035;-67
2021/11/16 00:10:48;;;;;;;63.42;30.63;;;6.50;99.90;;;;;;5116901;28;20446;-67
2021/11/16 00:13:14;;;;;;;58.22;29.50;;;6.50;99.90;;;;;;5142643;27;20028;-67
2021/11/16 00:15:42;;;;;;;58.33;29.20;;;6.50;99.90;;;;;;5114072;28;20601;-67
2021/11/16 00:18:08;;;;;;;58.95;29.35;;;6.50;99.90;;;;;;5133623;27;20513;-67
2021/11/16 00:20:40;;;;;;;56.65;29.45;;;6.40;99.90;;;;;;5145780;27;20076;-67
2021/11/16 00:23:06;;;;;;;56.08;28.17;;;6.40;99.90;;;;;;5108996;27;20108;-67
2021/11/16 00:25:36;;;;;;;57.95;29.85;;;6.40;99.90;;;;;;5107214;28;20079;-67
2021/11/16 00:28:02;;;;;;;54.72;29.48;;;6.40;99.90;;;;;;5082255;28;20044;-67
2021/11/16 00:30:28;;;;;;;56.75;29.67;;;6.40;99.90;;;;;;5106233;28;20047;-67
2021/11/16 00:32:54;;;;;;;61.45;31.83;;;6.40;99.90;;;;;;5118543;28;20627;-67
2021/11/16 00:35:20;;;;;;;63.63;29.92;;;6.40;99.90;;;;;;5140399;28;20035;-67
2021/11/16 00:37:46;;;;;;;57.17;29.05;;;6.40;99.90;;;;;;5126972;28;20107;-67
2021/11/16 00:40:16;;;;;;;53.15;28.00;;;6.30;99.90;;;;;;5124033;28;20473;-67
2021/11/16 00:42:44;;;;;;;58.35;30.88;;;6.40;99.90;;;;;;5113480;28;20080;-67
2021/11/16 00:45:10;;;;;;;58.28;30.58;;;6.40;99.90;;;;;;5139599;28;20044;-67
2021/11/16 00:47:36;;;;;;;59.17;29.60;;;6.50;99.90;;;;;;5127399;28;20052;-67
2021/11/16 00:50:04;;;;;;;56.05;30.80;;;6.40;99.90;;;;;;5106812;28;20047;-67
2021/11/16 00:52:30;;;;;;;56.60;29.15;;;6.40;99.90;;;;;;5130956;27;20468;-67
2021/11/16 00:54:56;;;;;;;64.38;31.73;;;6.40;99.90;;;;;;5138018;27;20040;-67
2021/11/16 00:57:22;;;;;;;61.70;30.45;;;6.40;99.90;;;;;;5135782;27;20044;-67
2021/11/16 00:59:48;;;;;;;62.20;31.05;;;6.40;99.90;;;;;;5117182;27;20047;-67
2021/11/16 01:02:15;;;;;;;54.53;28.80;;;6.40;99.90;;;;;;5106125;28;20044;-67
2021/11/16 01:04:47;;;;;;;57.90;30.02;;;6.50;99.90;;;;;;5114485;27;20050;-67
2021/11/16 01:07:13;;;;;;;60.40;29.45;;;6.60;99.90;;;;;;5123877;28;20040;-67
2021/11/16 01:09:39;;;;;;;61.33;31.88;;;6.70;99.90;;;;;;5107604;28;20036;-67
2021/11/16 01:12:05;;;;;;;65.72;32.28;;;6.60;99.90;;;;;;5116786;28;20043;-67
2021/11/16 01:14:31;;;;;;;61.72;31.42;;;6.50;99.90;;;;;;5140240;27;20122;-67
2021/11/16 01:16:57;;;;;;;63.40;31.70;;;6.50;99.90;;;;;;5138307;27;20052;-67
2021/11/16 01:19:23;;;;;;;63.15;31.73;;;6.40;99.90;;;;;;5116812;27;20249;-67
2021/11/16 01:21:49;;;;;;;62.13;32.40;;;6.40;99.90;;;;;;5125886;27;20046;-68
2021/11/16 01:24:16;;;;;;;64.82;31.52;;;6.30;99.90;;;;;;5144544;27;20107;-67
2021/11/16 01:26:45;;;;;;;65.22;33.78;;;6.30;99.90;;;;;;5119952;28;20040;-67
2021/11/16 01:29:11;;;;;;;67.18;32.55;;;6.30;99.90;;;;;;5113524;27;20047;-67
2021/11/16 01:31:37;;;;;;;64.20;30.67;;;6.30;99.90;;;;;;5141693;27;20050;-67
2021/11/16 01:34:05;;;;;;;61.15;29.83;;;6.30;99.90;;;;;;5138974;27;20046;-67
2021/11/16 01:36:31;;;;;;;62.13;29.67;;;6.30;99.90;;;;;;5136775;27;20122;-67
2021/11/16 01:38:58;;;;;;;62.20;31.25;;;6.40;99.90;;;;;;5105806;27;20125;-67
2021/11/16 01:41:25;;;;;;;62.08;29.17;;;6.40;99.90;;;;;;5130726;27;20968;-67
2021/11/16 01:43:52;;;;;;;63.00;31.20;;;6.40;99.90;;;;;;5141122;27;20573;-67
2021/11/16 01:46:19;;;;;;;60.90;31.13;;;6.40;99.90;;;;;;5112115;27;20503;-67
2021/11/16 01:48:51;;;;;;;64.43;31.30;;;6.50;99.90;;;;;;5117268;27;20069;-67
2021/11/16 01:51:20;;;;;;;68.00;33.47;;;6.40;99.90;;;;;;5148259;27;20046;-67
2021/11/16 01:53:48;;;;;;;61.63;30.17;;;6.30;99.90;;;;;;5119210;28;20043;-67
2021/11/16 01:56:14;;;;;;;61.42;31.08;;;6.30;99.90;;;;;;5120567;28;20040;-67
2021/11/16 01:58:40;;;;;;;61.30;30.58;;;6.20;99.90;;;;;;5145061;27;20127;-67
2021/11/16 02:01:06;;;;;;;60.78;31.60;;;6.20;99.90;;;;;;5129615;27;20071;-67
2021/11/16 02:03:33;;;;;;;61.83;31.02;;;6.20;99.90;;;;;;5124563;27;20399;-67
2021/11/16 02:06:23;;;;;;;69.50;31.95;;;6.10;99.90;;;;;;5141337;27;20487;-67
2021/11/16 02:08:50;;;;;;;;;;;6.10;99.90;;;;;;5125718;27;20051;-67
2021/11/16 02:11:17;;;;;;;67.05;31.52;;;6.10;99.90;;;;;;5113455;27;19923;-67
2021/11/16 02:13:42;;;;;;;64.38;29.60;;;6.10;99.90;;;;;;5129319;27;20054;-67
2021/11/16 02:16:08;;;;;;;61.58;29.92;;;6.10;99.90;;;;;;5128652;27;20039;-67
2021/11/16 02:18:35;;;;;;;66.68;30.52;;;6.10;99.90;;;;;;5128924;27;20082;-67
2021/11/16 02:21:01;;;;;;;65.88;30.83;;;6.10;99.90;;;;;;5128292;27;20111;-67
2021/11/16 02:23:27;;;;;;;61.88;31.38;;;6.10;99.90;;;;;;5114513;27;20097;-67
2021/11/16 02:25:53;;;;;;;65.55;32.03;;;6.20;99.90;;;;;;5128889;27;20051;-67
2021/11/16 02:28:19;;;;;;;62.20;31.83;;;6.20;99.90;;;;;;5142833;27;20054;-67
2021/11/16 02:30:46;;;;;;;69.53;34.33;;;6.10;99.90;;;;;;5122212;27;20050;-67
2021/11/16 02:33:13;;;;;;;67.43;33.55;;;6.10;99.90;;;;;;5116256;27;20047;-67
2021/11/16 02:35:39;;;;;;;71.03;32.75;;;6.10;99.90;;;;;;5118587;28;20052;-67
2021/11/16 02:38:05;;;;;;;67.82;33.78;;;6.10;99.90;;;;;;5121983;27;20059;-67
2021/11/16 02:40:33;;;;;;;65.45;29.50;;;6.10;99.90;;;;;;5120492;28;20055;-67
2021/11/16 02:42:58;;;;;;;66.55;33.85;;;6.20;99.90;;;;;;5140958;27;20042;-67
2021/11/16 02:45:25;;;;;;;67.45;31.48;;;6.20;99.90;;;;;;5123996;28;20036;-67
2021/11/16 02:47:51;;;;;;;67.97;33.25;;;6.20;99.90;;;;;;5114975;28;20090;-67
2021/11/16 02:50:18;;;;;;;70.72;33.35;;;6.20;99.90;;;;;;5120123;28;20048;-67
2021/11/16 02:52:44;;;;;;;65.60;31.38;;;6.30;99.90;;;;;;5139221;27;20177;-67
2021/11/16 02:55:10;;;;;;;67.72;33.10;;;6.30;99.90;;;;;;5140523;27;20099;-67
2021/11/16 02:57:36;;;;;;;71.13;31.13;;;6.30;99.90;;;;;;5138004;27;20043;-67
2021/11/16 03:00:13;;;;;;;69.85;32.67;;;6.30;99.90;;;;;;5122099;27;20042;-67
2021/11/16 03:02:44;;;;;;;72.13;32.20;;;6.20;99.90;;;;;;5127057;27;20043;-67
2021/11/16 03:05:10;;;;;;;69.60;31.63;;;6.20;99.90;;;;;;5123832;27;20140;-67
2021/11/16 03:07:41;;;;;;;70.95;32.45;;;6.10;99.90;;;;;;5146210;27;20051;-67
2021/11/16 03:10:09;;;;;;;66.47;31.02;;;6.10;99.90;;;;;;5134543;27;20051;-67
2021/11/16 03:12:34;;;;;;;70.97;33.90;;;6.10;99.90;;;;;;5128043;27;20050;-67
2021/11/16 03:15:01;;;;;;;71.95;33.20;;;6.10;99.90;;;;;;5120645;27;20047;-67
2021/11/16 03:17:27;;;;;;;75.15;33.80;;;6.00;99.90;;;;;;5121291;27;20047;-67
2021/11/16 03:19:54;;;;;;;71.55;33.00;;;6.00;99.90;;;;;;5111767;28;20088;-67
2021/11/16 03:22:27;;;;;;;69.75;32.28;;;6.00;99.90;;;;;;5118217;28;20054;-67
2021/11/16 03:24:58;;;;;;;69.00;31.90;;;6.00;99.90;;;;;;5124460;27;20042;-67
2021/11/16 03:27:35;;;;;;;71.18;31.77;;;6.00;99.90;;;;;;5117702;27;20522;-67
2021/11/16 03:30:01;;;;;;;72.45;31.83;;;5.90;99.90;;;;;;5127031;27;20039;-67
2021/11/16 03:32:36;;;;;;;74.43;30.98;;;6.00;99.90;;;;;;5127667;27;20245;-67
2021/11/16 03:35:05;;;;;;;71.95;33.08;;;6.00;99.90;;;;;;5146597;27;20111;-67
2021/11/16 03:37:37;;;;;;;75.20;33.45;;;6.00;99.90;;;;;;5120218;27;20103;-67
2021/11/16 03:40:04;;;;;;;72.18;33.85;;;6.00;99.90;;;;;;5110775;28;20503;-67
2021/11/16 03:42:30;;;;;;;73.43;34.95;;;6.00;99.90;;;;;;5123500;27;20047;-67
2021/11/16 03:44:55;;;;;;;78.22;34.05;;;6.00;99.90;;;;;;5142961;27;20158;-67
2021/11/16 03:47:21;;;;;;;69.28;32.60;;;6.00;99.90;;;;;;5139334;27;20091;-67
2021/11/16 03:49:48;;;;;;;74.38;34.67;;;6.00;99.90;;;;;;5138732;27;20097;-67
2021/11/16 03:52:17;;;;;;;70.57;32.08;;;6.10;99.90;;;;;;5119750;28;20043;-67
2021/11/16 03:54:43;;;;;;;73.35;31.38;;;6.10;99.90;;;;;;5114412;28;20054;-67
2021/11/16 03:57:09;;;;;;;73.97;33.40;;;6.20;99.90;;;;;;5093700;28;20039;-67
2021/11/16 03:59:36;;;;;;;74.43;32.15;;;6.20;99.90;;;;;;5145604;27;20036;-67
2021/11/16 04:02:02;;;;;;;74.75;34.55;;;6.30;99.90;;;;;;5116378;27;20048;-67
2021/11/16 04:04:27;;;;;;;72.82;33.40;;;6.20;99.90;;;;;;5112289;28;20051;-67
2021/11/16 04:06:53;;;;;;;73.35;33.53;;;6.10;99.90;;;;;;5126061;27;20031;-67
2021/11/16 04:09:20;;;;;;;70.80;32.38;;;6.10;99.90;;;;;;5117628;28;20051;-67
2021/11/16 04:11:45;;;;;;;74.50;34.28;;;6.10;99.90;;;;;;5126826;27;20139;-67
2021/11/16 04:14:11;;;;;;;71.63;31.77;;;6.10;99.90;;;;;;5126687;27;20051;-67
2021/11/16 04:16:37;;;;;;;71.95;32.78;;;6.20;99.90;;;;;;5132387;27;20092;-67
2021/11/16 04:19:03;;;;;;;73.82;31.50;;;6.20;99.90;;;;;;5117407;28;20043;-67
2021/11/16 04:21:29;;;;;;;77.57;33.97;;;6.20;99.90;;;;;;5141598;27;20108;-67
2021/11/16 04:23:55;;;;;;;72.60;34.67;;;6.10;99.90;;;;;;5145415;27;20046;-67
2021/11/16 04:26:22;;;;;;;73.03;34.53;;;6.00;99.90;;;;;;5113357;28;20102;-67
2021/11/16 04:28:47;;;;;;;75.38;33.45;;;6.00;99.90;;;;;;5120825;28;20122;-67
2021/11/16 04:31:13;;;;;;;77.28;34.45;;;6.10;99.90;;;;;;5119334;28;20046;-67
2021/11/16 04:33:40;;;;;;;75.60;34.50;;;6.10;99.90;;;;;;5140215;28;20511;-67
2021/11/16 04:36:06;;;;;;;79.57;35.28;;;6.20;99.90;;;;;;5134455;28;20039;-67
2021/11/16 04:38:32;;;;;;;72.25;32.50;;;6.10;99.90;;;;;;5125402;28;20047;-67
2021/11/16 04:41:01;;;;;;;76.55;34.85;;;6.10;99.90;;;;;;5119411;28;20043;-67
2021/11/16 04:43:28;;;;;;;75.90;35.00;;;6.10;99.90;;;;;;5122974;28;20091;-67
2021/11/16 04:45:58;;;;;;;75.53;33.80;;;6.10;99.90;;;;;;5093449;28;20067;-67
2021/11/16 04:48:46;;;;;;;74.95;33.30;;;6.00;99.90;;;;;;5127158;28;20074;-67
2021/11/16 05:04:37;;;;;;;75.32;34.13;;;6.20;99.90;;;;;;5112826;28;20066;-67
2021/11/16 05:07:04;;;;;;;75.15;33.60;;;6.20;99.90;;;;;;5118801;28;20512;-67
2021/11/16 05:09:31;;;;;;;75.40;34.22;;;6.20;99.90;;;;;;5126603;28;20090;-67
2021/11/16 05:11:58;;;;;;;76.10;33.05;;;6.20;99.90;;;;;;5108305;28;20046;-67
2021/11/16 05:14:24;;;;;;;74.55;33.10;;;6.30;99.90;;;;;;5114159;28;20066;-67
2021/11/16 05:16:50;;;;;;;74.35;32.13;;;6.20;99.90;;;;;;5124835;28;20043;-67
2021/11/16 05:19:15;;;;;;;76.65;32.00;;;6.20;99.90;;;;;;5126320;28;20035;-67
2021/11/16 05:21:41;;;;;;;77.82;33.15;;;6.30;99.90;;;;;;5116140;28;20043;-67
2021/11/16 05:24:07;;;;;;;74.15;32.53;;;6.30;99.90;;;;;;5126195;28;20055;-67
2021/11/16 05:26:33;;;;;;;73.10;32.80;;;6.30;99.90;;;;;;5138910;28;20047;-67
2021/11/16 05:28:59;;;;;;;72.78;32.30;;;6.30;99.90;;;;;;5132267;28;20046;-67
2021/11/16 05:31:25;;;;;;;72.80;33.78;;;6.20;99.90;;;;;;5121355;28;20043;-67
2021/11/16 05:33:54;;;;;;;71.47;33.58;;;6.20;99.90;;;;;;5143290;27;20047;-67
2021/11/16 05:36:21;;;;;;;76.30;33.42;;;6.10;99.90;;;;;;5130030;27;20070;-67
2021/11/16 05:38:47;;;;;;;76.70;33.72;;;6.10;99.90;;;;;;5101796;27;20047;-66
2021/11/16 05:41:14;;;;;;;81.93;35.78;;;6.00;99.90;;;;;;5140760;27;20039;-66
2021/11/16 05:43:42;;;;;;;75.03;33.15;;;5.90;99.90;;;;;;5118682;28;20063;-67
2021/11/16 05:46:08;;;;;;;73.47;33.10;;;6.00;99.90;;;;;;5146348;27;20042;-66
2021/11/16 05:48:36;;;;;;;70.82;31.45;;;5.90;99.90;;;;;;5123852;27;20055;-64
2021/11/16 05:51:03;;;;;;;74.32;32.65;;;5.90;99.90;;;;;;5137521;27;20108;-68
2021/11/16 05:53:29;;;;;;;65.28;30.80;;;5.90;99.90;;;;;;5123911;27;20054;-67
2021/11/16 05:55:56;;;;;;;71.63;30.02;;;5.90;99.90;;;;;;5122413;27;20046;-67
2021/11/16 05:58:23;;;;;;;71.63;30.95;;;6.00;99.90;;;;;;5125090;27;20091;-68
2021/11/16 06:00:50;;;;;;;73.45;31.63;;;5.90;99.90;;;;;;5128317;27;20099;-69
2021/11/16 06:03:17;;;;;;;71.75;30.40;;;5.90;99.90;;;;;;5128487;27;20043;-68
2021/11/16 06:05:43;;;;;;;77.10;32.00;;;5.90;99.90;;;;;;5126169;27;20114;-69
2021/11/16 06:08:23;;;;;;;69.72;31.08;;;5.90;99.90;;;;;;5143420;27;20067;-68
2021/11/16 06:10:49;;;;;;;71.75;32.15;;;5.80;99.90;;;;;;5123472;27;20630;-70
2021/11/16 06:13:15;;;;;;;76.43;34.38;;;5.90;99.90;;;;;;5145358;27;20138;-68
2021/11/16 06:15:42;;;;;;;72.80;32.75;;;5.90;99.90;;;;;;5142831;27;20039;-73
2021/11/16 06:18:08;;;;;;;73.45;32.13;;;5.90;99.90;;;;;;5127010;27;20524;-70
2021/11/16 06:20:34;;;;;;;85.28;34.17;;;5.90;99.90;;;;;;5125637;27;20078;-67
2021/11/16 06:23:00;;;;;;;75.65;32.50;;;5.90;99.90;;;;;;5121971;28;20108;-67
2021/11/16 06:25:26;;;;;;;74.53;31.55;;;5.90;99.90;;;;;;5143845;27;20082;-66
2021/11/16 06:27:51;;;;;;;76.25;32.10;;;6.00;99.90;;;;;;5142448;27;20063;-66
2021/11/16 06:30:17;;;;;;;75.88;32.15;;;6.00;99.90;;;;;;5142824;27;20054;-68
2021/11/16 06:32:43;;;;;;;79.55;33.35;;;6.00;99.90;;;;;;5126510;27;20072;-67
2021/11/16 06:35:18;;;;;;;70.88;33.67;;;6.10;99.90;;;;;;5142603;27;20039;-70
2021/11/16 06:37:46;;;;;;;69.30;31.70;;;6.10;99.90;;;;;;5141501;27;20517;-67
2021/11/16 06:40:13;;;;;;;78.75;36.25;;;6.00;99.90;;;;;;5106268;27;20048;-67
2021/11/16 06:42:39;;;;;;;73.68;32.00;;;6.00;99.90;;;;;;5127280;27;20047;-67
2021/11/16 06:45:05;;;;;;;75.70;33.20;;;6.00;99.90;;;;;;5123702;27;20530;-67
2021/11/16 06:47:31;;;;;;;71.82;31.48;;;6.00;99.90;;;;;;5121656;27;20043;-67
2021/11/16 06:49:57;;;;;;;72.90;32.65;;;6.10;99.90;;;;;;5125801;27;20054;-67
2021/11/16 06:52:27;;;;;;;69.60;31.02;;;6.20;99.90;;;;;;5123304;27;20046;-67
2021/11/16 06:54:52;;;;;;;69.05;31.08;;;6.10;99.90;;;;;;5111146;27;20135;-67
2021/11/16 06:57:18;;;;;;;74.57;31.73;;;6.10;99.90;;;;;;5127566;27;20047;-67
2021/11/16 06:59:44;;;;;;;72.60;30.85;;;6.10;99.90;;;;;;5143223;27;20095;-67
2021/11/16 07:02:10;;;;;;;69.10;30.48;;;6.20;99.90;;;;;;5123958;27;20398;-67
2021/11/16 07:04:39;;;;;;;72.57;30.70;;;6.10;99.90;;;;;;5111617;27;20071;-67
2021/11/16 07:07:06;;;;;;;72.80;30.75;;;6.10;99.90;;;;;;5125371;27;20113;-67
2021/11/16 07:09:35;;;;;;;72.57;31.38;;;6.00;99.90;;;;;;5122132;27;20051;-67
2021/11/16 07:12:02;;;;;;;68.38;29.65;;;6.00;99.90;;;;;;5124703;27;20043;-66
2021/11/16 07:14:37;;;;;;;76.93;33.28;;;5.90;99.90;;;;;;5122679;27;20111;-67
2021/11/16 07:17:06;;;;;;;68.75;30.00;;;5.90;99.90;;;;;;5141758;27;20429;-65
2021/11/16 07:19:36;;;;;;;69.07;31.73;;;5.90;99.90;;;;;;5111066;28;20521;-66
2021/11/16 07:22:09;;;;;;;72.20;32.53;;;5.90;99.90;;;;;;5070859;27;20092;-67
2021/11/16 07:24:45;;;;;;;65.63;31.40;;;5.90;99.90;;;;;;5075436;28;20194;-68
2021/11/16 07:27:12;;;;;;;72.47;32.83;;;5.90;99.90;;;;;;5124346;27;20058;-68
2021/11/16 07:29:44;;;;;;;76.70;32.67;;;5.90;99.90;;;;;;5119558;27;20046;-67
2021/11/16 07:32:17;;;;;;;72.10;32.55;;;5.80;99.90;;;;;;5103151;27;20073;-67
2021/11/16 07:34:44;;;;;;;73.20;31.52;;;5.80;99.90;;;;;;5107393;28;20050;-67
2021/11/16 07:37:16;;;;;;;73.43;32.28;;;5.80;99.90;;;;;;5094988;27;20058;-67
2021/11/16 07:39:51;;;;;;;70.25;32.33;;;5.80;99.90;;;;;;5093892;28;20043;-67
2021/11/16 07:42:19;;;;;;;73.65;34.03;;;5.80;99.90;;;;;;5080134;28;20589;-64
2021/11/16 07:45:10;;;;;;;80.75;33.63;;;5.80;99.90;;;;;;5108917;27;20092;-64
2021/11/16 07:47:49;;;;;;;75.20;33.22;;;5.80;99.90;;;;;;5088948;28;20067;-64
2021/11/16 07:50:30;;;;;;;83.85;37.08;;;5.80;99.90;;;;;;5109436;27;20351;-63
2021/11/16 07:53:32;;;;;;;77.63;32.80;;;5.80;99.90;;;;;;5109164;27;20126;-63
2021/11/16 07:56:09;;;;;;;77.78;34.08;;;5.80;99.90;;;;;;5113659;28;20375;-63
2021/11/16 07:58:56;;;;;;;74.35;32.90;;;5.80;99.90;;;;;;5090724;28;20061;-63
2021/11/16 08:01:42;;;;;;;80.28;34.33;;;5.90;99.90;;;;;;5113195;28;20115;-63
2021/11/16 08:09:46;;;;;;;80.57;34.30;;;5.90;99.90;;;;;;5115311;27;20069;-63
2021/11/16 08:14:46;;;;;;;80.10;34.05;;;6.00;99.90;;;;;;5118973;27;20243;-63
2021/11/16 08:17:13;;;;;;;72.43;33.85;;;6.00;99.90;;;;;;5126832;27;21281;-63
2021/11/16 08:19:41;;;;;;;77.15;32.70;;;6.20;99.90;;;;;;5134865;27;20107;-63
2021/11/16 08:22:15;;;;;;;78.35;32.85;;;6.20;99.90;;;;;;5096538;28;20126;-63
2021/11/16 08:24:44;;;;;;;71.72;31.95;;;6.20;99.90;;;;;;5098399;28;20062;-63
2021/11/16 08:27:16;;;;;;;77.68;31.92;;;6.10;99.90;;;;;;5108926;28;20055;-63
2021/11/16 08:29:48;;;;;;;76.15;32.30;;;6.00;99.90;;;;;;5099518;28;20079;-63
2021/11/16 08:32:27;;;;;;;84.13;36.00;;;6.00;99.90;;;;;;5106295;28;20547;-63
2021/11/16 08:34:57;;;;;;;76.70;32.10;;;6.00;99.90;;;;;;5116913;28;20031;-63
2021/11/16 08:37:26;;;;;;;70.07;30.67;;;6.00;99.90;;;;;;5091038;28;20079;-64
2021/11/16 08:39:57;;;;;;;73.60;32.00;;;6.10;99.90;;;;;;5090198;28;20518;-66
2021/11/16 08:42:27;;;;;;;69.65;30.10;;;6.10;99.90;;;;;;5089278;28;20071;-64
2021/11/16 08:44:59;;;;;;;68.63;29.88;;;6.20;99.90;;;;;;5100129;28;20051;-64
2021/11/16 08:47:38;;;;;;;65.53;29.88;;;6.30;99.90;;;;;;5103540;28;20104;-63
2021/11/16 08:50:11;;;;;;;60.00;27.08;;;6.20;99.90;;;;;;5091455;28;20047;-63
2021/11/16 08:52:37;;;;;;;66.97;28.05;;;6.00;99.90;;;;;;5105863;28;20060;-63
2021/11/16 08:55:05;;;;;;;69.18;29.23;;;6.00;99.90;;;;;;5091809;28;20071;-63
2021/11/16 08:57:33;;;;;;;63.10;27.42;;;6.00;99.90;;;;;;5105832;28;20081;-63
2021/11/16 08:59:59;;;;;;;67.30;27.65;;;6.00;99.90;;;;;;5088354;28;20046;-63
2021/11/16 09:02:28;;;;;;;69.47;28.83;;;6.00;99.90;;;;;;5104305;28;20056;-69
2021/11/16 09:04:54;;;;;;;64.45;28.33;;;5.90;99.90;;;;;;5089381;28;20131;-63
2021/11/16 09:07:29;;;;;;;68.60;28.20;;;5.90;99.90;;;;;;5104543;28;20048;-63
2021/11/16 09:10:07;;;;;;;70.18;29.92;;;5.90;99.90;;;;;;5092535;28;20063;-63
2021/11/16 09:12:33;;;;;;;60.58;26.35;;;5.80;99.90;;;;;;5103638;28;20130;-63
2021/11/16 09:15:01;;;;;;;71.40;29.70;;;5.80;99.90;;;;;;5091798;28;20250;-63
2021/11/16 09:17:27;;;;;;;71.43;28.83;;;5.80;99.90;;;;;;5094587;28;20154;-63
2021/11/16 09:19:53;;;;;;;70.30;29.20;;;5.80;99.90;;;;;;5093021;28;20071;-63
2021/11/16 09:22:19;;;;;;;68.28;28.88;;;5.80;99.90;;;;;;5111593;27;20081;-63
2021/11/16 09:24:48;;;;;;;68.80;29.10;;;5.90;99.90;;;;;;5108895;27;20054;-63
2021/11/16 09:27:38;;;;;;;68.25;29.33;;;5.80;99.90;;;;;;5103968;28;20044;-63
2021/11/16 09:30:04;;;;;;;65.47;27.63;;;5.90;99.90;;;;;;5125470;27;20035;-63
2021/11/16 09:32:30;;;;;;;66.43;29.98;;;5.80;99.90;;;;;;5114254;27;20515;-63
2021/11/16 09:34:59;;;;;;;70.00;31.10;;;5.90;99.90;;;;;;5123254;27;20121;-63
2021/11/16 09:37:27;;;;;;;77.85;32.15;;;5.90;99.90;;;;;;5121832;27;20447;-63
2021/11/16 09:40:03;;;;;;;69.53;30.25;;;6.10;99.90;;;;;;5120076;27;20047;-63
2021/11/16 09:42:36;;;;;;;68.43;30.48;;;6.10;99.90;;;;;;5125163;27;20070;-63
2021/11/16 09:45:10;;;;;;;74.85;32.47;;;6.10;99.90;;;;;;5128959;27;20062;-63
2021/11/16 09:47:39;;;;;;;69.25;30.08;;;6.20;99.90;;;;;;5128790;27;20051;-63
2021/11/16 09:50:17;;;;;;;76.07;30.80;;;6.10;99.90;;;;;;5124630;27;20512;-63
2021/11/16 09:52:46;;;;;;;74.13;30.60;;;6.10;99.90;;;;;;5123556;27;20526;-63
2021/11/16 09:55:19;;;;;;;70.85;30.05;;;6.00;99.90;;;;;;5113269;27;20062;-63
2021/11/16 09:57:57;;;;;;;78.85;31.50;;;6.20;99.90;;;;;;5104599;27;20059;-63
2021/11/16 10:00:50;;;;;;;70.40;28.52;;;6.40;99.90;;;;;;5120966;27;20043;-65
2021/11/16 10:03:24;;;;;;;78.18;32.47;;;6.30;99.90;;;;;;5095002;28;20047;-63
2021/11/16 10:05:54;;;;;;;67.82;29.88;;;6.40;99.90;;;;;;5112801;27;20047;-62
2021/11/16 10:08:22;;;;;;;75.93;31.75;;;6.40;99.90;;;;;;5121713;27;20039;-63
2021/11/16 10:10:51;;;;;;;66.03;29.15;;;6.30;99.90;;;;;;5133034;27;20042;-63
2021/11/16 10:13:29;;;;;;;65.97;28.40;;;6.20;99.90;;;;;;5129410;27;20132;-63
2021/11/16 10:15:58;;;;;;;67.15;30.35;;;6.30;99.90;;;;;;5113966;27;20042;-62
2021/11/16 10:18:25;;;;;;;63.42;27.73;;;6.40;99.90;;;;;;5099193;27;20055;-62
2021/11/16 10:20:53;;;;;;;63.53;28.40;;;6.30;99.90;;;;;;5112390;27;20046;-63
2021/11/16 10:23:29;;;;;;;65.70;26.30;;;6.30;99.90;;;;;;5120449;27;20057;-63
2021/11/16 10:25:58;;;;;;;55.95;26.13;;;6.40;99.90;;;;;;5110931;28;20082;-63
2021/11/16 10:28:24;;;;;;;60.72;27.42;;;6.30;99.90;;;;;;5119360;27;20070;-63
2021/11/16 10:30:50;;;;;;;58.75;26.48;;;6.30;99.90;;;;;;5111314;27;20046;-63
2021/11/16 10:33:30;;;;;;;62.97;28.02;;;6.30;99.90;;;;;;5129466;27;20047;-63
2021/11/16 10:36:06;;;;;;;66.22;29.25;;;6.30;99.90;;;;;;5108783;27;20047;-63
2021/11/16 10:38:48;;;;;;;67.82;30.15;;;6.20;99.90;;;;;;5095867;28;20371;-64
2021/11/16 10:41:20;;;;;;;56.95;26.70;;;6.20;99.90;;;;;;5114958;27;20055;-63
2021/11/16 10:43:58;;;;;;;57.25;25.58;;;6.20;99.90;;;;;;5119522;27;20123;-63
2021/11/16 10:46:30;;;;;;;61.95;26.95;;;6.20;99.90;;;;;;5128609;27;20251;-63
2021/11/16 10:48:58;;;;;;;54.45;25.10;;;6.20;99.90;;;;;;5104208;28;20065;-63
2021/11/16 10:51:32;;;;;;;60.00;27.75;;;6.20;99.90;;;;;;5111942;27;20051;-63
2021/11/16 10:53:59;;;;;;;63.17;28.33;;;6.30;99.90;;;;;;5089166;27;20546;-63
2021/11/16 10:56:28;;;;;;;66.28;28.60;;;6.20;99.90;;;;;;5139578;27;20426;-63
2021/11/16 10:59:02;;;;;;;62.55;28.38;;;6.20;99.90;;;;;;5094724;28;20132;-63
2021/11/16 11:01:28;;;;;;;64.30;28.20;;;6.20;99.90;;;;;;5118978;27;20142;-63
2021/11/16 11:03:55;;;;;;;63.72;27.55;;;6.00;99.90;;;;;;5109272;27;20166;-63
2021/11/16 11:06:34;;;;;;;57.92;26.88;;;6.00;99.90;;;;;;5139375;27;20046;-63
2021/11/16 11:09:00;;;;;;;65.38;27.83;;;6.10;99.90;;;;;;5099816;28;20052;-63
2021/11/16 11:11:35;;;;;;;63.92;28.90;;;6.00;99.90;;;;;;5127358;27;20054;-64
2021/11/16 11:14:16;;;;;;;61.15;26.45;;;6.00;99.90;;;;;;5089988;28;20085;-63
2021/11/16 11:16:48;;;;;;;62.80;27.50;;;5.90;99.90;;;;;;5104756;28;20526;-64
2021/11/16 11:19:26;;;;;;;73.78;30.25;;;5.90;99.90;;;;;;5124772;27;20047;-64
2021/11/16 11:21:59;;;;;;;68.78;28.17;;;5.90;99.90;;;;;;5139063;27;20039;-63
2021/11/16 11:24:44;;;;;;;68.53;28.75;;;5.90;99.90;;;;;;5097854;28;20048;-63
2021/11/16 11:29:58;;;;;;;66.53;29.52;;;5.90;99.90;;;;;;5102565;27;20104;-63
2021/11/16 11:32:30;;;;;;;68.35;28.83;;;5.80;99.90;;;;;;5113530;27;20107;-67
2021/11/16 11:35:03;;;;;;;62.50;28.02;;;5.80;99.90;;;;;;5119771;27;20047;-63
2021/11/16 11:37:39;;;;;;;66.57;28.65;;;5.70;99.90;;;;;;5107852;27;20054;-63
2021/11/16 11:40:13;;;;;;;67.65;29.00;;;5.70;99.90;;;;;;5139532;27;20074;-62
2021/11/16 11:42:52;;;;;;;65.63;28.00;;;5.60;99.90;;;;;;5125524;27;20099;-63
2021/11/16 11:45:25;;;;;;;71.63;28.55;;;5.60;99.90;;;;;;5115020;27;20151;-63
2021/11/16 11:47:54;;;;;;;71.30;29.33;;;5.60;99.90;;;;;;5127629;27;20046;-62
2021/11/16 11:50:39;;;;;;;65.80;28.95;;;5.60;99.90;;;;;;5140007;27;20456;-62
2021/11/16 11:53:16;;;;;;;64.40;28.02;;;5.60;99.90;;;;;;5124042;27;20051;-63
2021/11/16 11:55:51;;;;;;;73.13;30.48;;;5.70;99.90;;;;;;5116568;27;20495;-63
2021/11/16 11:58:19;;;;;;;65.75;28.98;;;5.80;99.90;;;;;;5121204;27;20048;-63
2021/11/16 12:00:47;;;;;;;73.97;28.70;;;5.90;99.90;;;;;;5119467;27;20046;-63
2021/11/16 12:03:13;;;;;;;74.38;32.22;;;5.90;99.90;;;;;;5121015;27;20043;-64
2021/11/16 12:05:41;;;;;;;70.68;29.10;;;6.00;99.90;;;;;;5110489;28;20051;-64
2021/11/16 12:08:09;;;;;;;70.63;29.08;;;6.00;99.90;;;;;;5108969;27;20058;-64
2021/11/16 12:10:36;;;;;;;67.78;28.48;;;5.90;99.90;;;;;;5109224;27;20053;-64
2021/11/16 12:13:03;;;;;;;69.90;31.33;;;5.90;99.90;;;;;;5095981;27;20077;-66
2021/11/16 12:15:31;;;;;;;64.88;28.67;;;5.80;99.90;;;;;;5114466;27;20082;-63
2021/11/16 12:17:58;;;;;;;70.95;28.83;;;5.80;99.90;;;;;;5120562;27;20115;-63
2021/11/16 12:20:40;;;;;;;77.63;31.48;;;5.80;99.90;;;;;;5113432;28;20043;-63
2021/11/16 12:23:13;;;;;;;71.43;29.42;;;5.90;99.90;;;;;;5102989;27;20104;-64
2021/11/16 12:25:40;;;;;;;69.15;29.33;;;5.80;99.90;;;;;;5119206;27;20055;-63
2021/11/16 12:28:27;;;;;;;69.93;30.30;;;5.90;99.90;;;;;;5125423;27;20077;-63
2021/11/16 12:30:55;;;;;;;66.13;28.40;;;6.00;99.90;;;;;;5118386;28;20073;-64
2021/11/16 12:33:40;;;;;;;66.30;28.95;;;6.00;99.90;;;;;;5118277;28;20060;-63
2021/11/16 12:36:08;;;;;;;66.47;29.48;;;6.10;99.90;;;;;;5090587;28;20084;-63
2021/11/16 12:38:42;;;;;;;71.18;29.92;;;6.10;99.90;;;;;;5111366;28;20056;-63
2021/11/16 12:41:26;;;;;;;71.00;29.38;;;6.20;99.90;;;;;;5100023;28;20067;-63
2021/11/16 12:43:54;;;;;;;72.05;32.20;;;6.20;99.90;;;;;;5102677;27;20189;-63
2021/11/16 12:46:21;;;;;;;73.35;31.10;;;6.00;99.90;;;;;;5117984;27;20035;-63
2021/11/16 12:48:52;;;;;;;66.38;27.92;;;5.90;99.90;;;;;;5109493;27;20047;-64
2021/11/16 12:51:30;;;;;;;66.78;28.73;;;5.80;99.90;;;;;;5114878;27;20039;-63
2021/11/16 12:54:04;;;;;;;66.70;28.63;;;6.00;99.90;;;;;;5106942;27;20051;-63
2021/11/16 12:56:42;;;;;;;64.57;26.98;;;5.90;99.90;;;;;;5114669;28;20126;-63
2021/11/16 12:59:10;;;;;;;68.00;28.05;;;5.90;99.90;;;;;;5125528;27;20058;-63
2021/11/16 13:01:56;;;;;;;65.85;26.73;;;6.10;99.90;;;;;;5112291;28;20055;-63
2021/11/16 13:04:37;;;;;;;62.85;26.98;;;6.20;99.90;;;;;;5087907;27;20065;-63
2021/11/16 13:07:31;;;;;;;62.55;25.38;;;6.10;99.90;;;;;;5105051;28;20054;-64
2021/11/16 13:10:11;;;;;;;64.13;28.17;;;6.20;99.90;;;;;;5095228;28;20091;-63
2021/11/16 13:12:53;;;;;;;60.88;26.38;;;6.00;99.90;;;;;;5109317;27;20047;-63
2021/11/16 13:15:24;;;;;;;65.72;25.73;;;5.90;99.90;;;;;;5110123;27;20048;-63